Time;durP1;ratioP1;P1;durP2;ratioP2;P2;SDS_P1;SDS_P2;PMS_P1;PMS_P2;Temp;Humidity;BMP_temperature;BMP_pressure;BME280_temperature;BME280_humidity;BME280_pressure;Samples;Min_cycle;Max_cycle;Signal;HPM_P1;HPM_P2
2021/03/19 00:01:46;;;;;;;21.13;18.77;;;3.90;92.90;;;;;;6214140;23;20194;-84
2021/03/19 00:04:12;;;;;;;21.20;18.93;;;3.90;92.70;;;;;;6216133;23;20147;-86
2021/03/19 00:06:37;;;;;;;20.93;18.53;;;4.00;92.70;;;;;;6189231;23;20156;-85
2021/03/19 00:09:06;;;;;;;27.17;20.27;;;3.80;93.00;;;;;;6215958;23;20202;-85
2021/03/19 00:11:35;;;;;;;21.25;19.05;;;3.90;92.90;;;;;;6189279;23;20148;-85
2021/03/19 00:14:02;;;;;;;21.02;18.70;;;3.40;93.10;;;;;;6215867;23;20178;-85
2021/03/19 00:16:28;;;;;;;25.42;20.15;;;3.80;93.10;;;;;;6189044;23;20649;-85
2021/03/19 00:18:54;;;;;;;24.33;21.50;;;3.80;93.00;;;;;;6215974;23;20148;-84
2021/03/19 00:21:20;;;;;;;27.90;20.70;;;3.80;92.50;;;;;;6216288;23;20171;-85
2021/03/19 00:23:45;;;;;;;26.23;21.33;;;3.90;92.70;;;;;;6188110;23;20394;-85
2021/03/19 00:26:11;;;;;;;25.10;21.50;;;3.90;92.80;;;;;;6189450;23;20470;-85
2021/03/19 00:28:37;;;;;;;25.03;22.47;;;3.80;93.20;;;;;;6215877;23;20233;-85
2021/03/19 00:31:03;;;;;;;22.70;20.40;;;3.50;93.00;;;;;;6215786;23;20221;-84
2021/03/19 00:33:29;;;;;;;25.60;21.07;;;3.80;92.70;;;;;;6189119;23;20444;-85
2021/03/19 00:35:55;;;;;;;25.10;21.20;;;3.70;92.80;;;;;;6215873;23;20370;-83
2021/03/19 00:38:21;;;;;;;22.80;19.60;;;3.90;93.10;;;;;;6215848;23;20174;-85
2021/03/19 00:40:47;;;;;;;25.47;21.30;;;3.60;92.40;;;;;;6215894;23;20144;-85
2021/03/19 00:43:13;;;;;;;19.40;17.10;;;3.70;92.00;;;;;;6215796;23;20174;-85
2021/03/19 00:45:39;;;;;;;25.75;22.65;;;3.60;92.30;;;;;;6215748;23;20367;-86
2021/03/19 00:48:05;;;;;;;29.87;23.33;;;3.50;92.40;;;;;;6188945;23;20156;-85
2021/03/19 00:50:34;;;;;;;27.27;21.55;;;3.60;92.70;;;;;;6215750;23;20824;-85
2021/03/19 00:53:01;;;;;;;25.98;21.17;;;3.50;92.30;;;;;;6215579;23;20140;-85
2021/03/19 00:55:27;;;;;;;26.52;20.52;;;3.70;92.60;;;;;;6215763;23;20583;-84
2021/03/19 00:57:52;;;;;;;27.80;23.57;;;3.60;92.00;;;;;;6215355;23;20148;-85
2021/03/19 01:00:19;;;;;;;27.17;22.67;;;3.60;92.20;;;;;;6215258;23;20143;-85
2021/03/19 01:02:45;;;;;;;24.92;21.40;;;4.30;92.10;;;;;;6215577;23;20175;-86
2021/03/19 01:05:24;;;;;;;25.93;21.30;;;3.70;91.80;;;;;;6215586;23;20590;-85
2021/03/19 01:07:50;;;;;;;24.92;21.90;;;5.50;92.60;;;;;;6188810;23;20374;-85
2021/03/19 01:10:22;;;;;;;25.05;21.42;;;3.60;91.60;;;;;;6215412;23;20175;-85
2021/03/19 01:12:47;;;;;;;27.75;22.15;;;5.40;92.70;;;;;;6215388;23;20140;-85
2021/03/19 01:15:13;;;;;;;29.50;22.17;;;3.50;91.70;;;;;;6214429;23;20147;-85
2021/03/19 01:17:39;;;;;;;25.90;22.17;;;3.70;91.80;;;;;;6215360;23;20146;-84
2021/03/19 01:20:08;;;;;;;24.00;21.20;;;3.60;91.80;;;;;;6215689;23;20381;-85
2021/03/19 01:22:34;;;;;;;25.77;21.70;;;3.80;91.00;;;;;;6188890;23;20198;-84
2021/03/19 01:24:59;;;;;;;25.43;22.57;;;3.60;91.60;;;;;;6215772;23;20144;-84
2021/03/19 01:27:25;;;;;;;26.10;23.23;;;3.60;91.50;;;;;;6216020;23;20143;-85
2021/03/19 01:29:51;;;;;;;29.40;22.23;;;3.60;92.00;;;;;;6189572;23;20470;-85
2021/03/19 01:32:16;;;;;;;25.10;22.40;;;3.30;91.50;;;;;;6215572;23;20154;-85
2021/03/19 01:34:42;;;;;;;25.80;21.37;;;3.70;91.50;;;;;;6214345;23;20144;-85
2021/03/19 01:37:07;;;;;;;24.43;21.90;;;3.60;91.10;;;;;;6215230;23;20147;-85
2021/03/19 01:39:33;;;;;;;26.17;21.60;;;3.60;91.20;;;;;;6188836;23;20197;-84
2021/03/19 01:42:00;;;;;;;24.97;21.00;;;3.60;91.00;;;;;;6213557;23;20205;-85
2021/03/19 01:44:40;;;;;;;25.33;22.27;;;4.40;91.50;;;;;;6215250;23;20144;-86
2021/03/19 01:47:53;;;;;;;32.38;22.38;;;3.80;89.50;;;;;;6215278;23;20218;-85
2021/03/19 01:50:56;;;;;;;27.05;22.90;;;3.70;90.10;;;;;;6142421;23;20151;-85
2021/03/19 01:53:59;;;;;;;26.83;21.75;;;3.60;90.10;;;;;;6211226;23;20563;-85
2021/03/19 01:57:02;;;;;;;25.75;21.80;;;3.80;90.40;;;;;;6185763;23;20157;-85
2021/03/19 02:00:05;;;;;;;28.02;23.77;;;3.90;90.40;;;;;;6211865;23;20175;-85
2021/03/19 02:03:08;;;;;;;28.67;24.35;;;3.70;90.20;;;;;;6211874;23;20201;-85
2021/03/19 02:06:11;;;;;;;26.55;23.55;;;3.70;90.00;;;;;;6211950;23;20166;-85
2021/03/19 02:09:14;;;;;;;27.55;22.35;;;3.70;90.20;;;;;;6211909;23;20151;-85
2021/03/19 02:12:18;;;;;;;33.55;24.08;;;3.60;90.30;;;;;;6212103;23;20159;-84
2021/03/19 02:15:21;;;;;;;27.65;24.70;;;3.50;90.60;;;;;;6185621;23;20147;-84
2021/03/19 02:18:27;;;;;;;26.38;22.73;;;3.50;90.50;;;;;;6211955;23;20225;-84
2021/03/19 02:21:30;;;;;;;34.13;21.60;;;3.50;90.40;;;;;;6212187;23;20143;-85
2021/03/19 02:24:33;;;;;;;26.42;22.42;;;3.60;90.30;;;;;;6211727;23;20157;-84
2021/03/19 02:27:36;;;;;;;27.35;21.77;;;3.60;90.20;;;;;;6211981;23;20154;-84
2021/03/19 02:30:39;;;;;;;26.30;21.30;;;3.50;90.20;;;;;;6185366;23;20151;-85
2021/03/19 02:33:05;;;;;;;23.38;19.45;;;3.60;90.10;;;;;;6211867;23;20143;-85
2021/03/19 02:35:30;;;;;;;24.23;20.93;;;3.50;91.40;;;;;;6211607;23;20151;-84
2021/03/19 02:37:56;;;;;;;25.20;20.97;;;3.50;91.30;;;;;;6211869;23;20148;-85
2021/03/19 02:40:23;;;;;;;26.03;19.00;;;3.40;91.00;;;;;;6213422;23;20437;-85
2021/03/19 02:42:49;;;;;;;22.63;20.15;;;3.70;90.90;;;;;;6215109;23;20171;-85
2021/03/19 02:45:22;;;;;;;25.90;20.77;;;3.60;90.70;;;;;;6188668;23;20159;-85
2021/03/19 02:47:48;;;;;;;20.52;18.27;;;3.70;90.90;;;;;;6217167;23;20140;-85
2021/03/19 02:50:14;;;;;;;19.83;17.83;;;3.50;90.90;;;;;;6216668;23;20154;-85
2021/03/19 02:52:42;;;;;;;23.63;18.88;;;3.60;90.50;;;;;;6216723;23;20163;-84
2021/03/19 02:55:12;;;;;;;22.63;18.90;;;3.40;90.40;;;;;;6216697;23;20214;-85
2021/03/19 02:57:38;;;;;;;22.90;19.45;;;3.70;90.20;;;;;;6190412;23;20579;-85
2021/03/19 03:00:06;;;;;;;20.87;17.80;;;3.50;90.70;;;;;;6216797;23;20223;-85
2021/03/19 03:02:32;;;;;;;22.23;19.50;;;3.60;89.80;;;;;;6189729;23;20190;-85
2021/03/19 03:04:57;;;;;;;23.20;17.53;;;3.40;90.50;;;;;;6216585;23;20225;-85
2021/03/19 03:07:26;;;;;;;26.70;19.23;;;3.30;90.40;;;;;;6216596;23;20150;-84
2021/03/19 03:09:52;;;;;;;21.08;16.55;;;3.40;90.30;;;;;;6216947;23;20194;-84
2021/03/19 03:12:18;;;;;;;20.37;18.27;;;3.30;90.30;;;;;;6189574;23;20495;-84
2021/03/19 03:14:43;;;;;;;20.75;16.55;;;3.30;90.40;;;;;;6215574;23;20139;-84
2021/03/19 03:17:10;;;;;;;17.10;15.40;;;3.50;90.60;;;;;;6216801;23;20139;-84
2021/03/19 03:19:36;;;;;;;19.70;16.77;;;3.30;90.20;;;;;;6216726;23;20143;-84
2021/03/19 03:22:02;;;;;;;20.73;16.98;;;3.40;90.50;;;;;;6216213;23;20171;-86
2021/03/19 03:24:32;;;;;;;22.30;17.83;;;3.30;90.40;;;;;;6216314;23;20143;-85
2021/03/19 03:26:58;;;;;;;21.33;17.70;;;3.00;90.30;;;;;;6216257;23;20147;-85
2021/03/19 03:29:26;;;;;;;20.60;17.10;;;3.20;90.90;;;;;;6216444;23;20150;-85
2021/03/19 03:31:52;;;;;;;19.55;17.65;;;3.10;90.90;;;;;;6214786;23;20202;-85
2021/03/19 03:34:18;;;;;;;20.20;17.17;;;3.10;90.40;;;;;;6189394;23;20154;-85
2021/03/19 03:36:45;;;;;;;20.47;16.97;;;3.10;90.60;;;;;;6216247;23;20144;-85
2021/03/19 03:39:14;;;;;;;21.35;17.15;;;2.80;90.20;;;;;;6216199;23;20568;-84
2021/03/19 03:41:42;;;;;;;25.27;19.73;;;3.00;90.10;;;;;;6189517;23;20499;-85
2021/03/19 03:44:12;;;;;;;21.65;18.30;;;3.00;90.10;;;;;;6216143;23;20151;-85
2021/03/19 03:46:38;;;;;;;27.88;20.70;;;2.80;90.30;;;;;;6216213;23;20127;-85
2021/03/19 03:49:04;;;;;;;26.60;19.20;;;2.90;90.50;;;;;;6216176;23;20143;-85
2021/03/19 03:51:30;;;;;;;25.03;20.27;;;2.90;90.80;;;;;;6215927;23;20143;-84
2021/03/19 03:53:57;;;;;;;24.88;19.70;;;2.90;90.90;;;;;;6216062;23;20150;-85
2021/03/19 03:56:28;;;;;;;26.05;20.27;;;3.00;91.40;;;;;;6189491;23;20151;-84
2021/03/19 03:58:53;;;;;;;20.85;17.60;;;3.00;91.00;;;;;;6216538;23;20132;-85
2021/03/19 04:01:19;;;;;;;21.97;18.90;;;3.10;90.90;;;;;;6216024;23;20242;-85
2021/03/19 04:03:45;;;;;;;21.60;17.47;;;3.00;90.10;;;;;;6189155;23;20369;-85
2021/03/19 04:06:11;;;;;;;24.30;18.50;;;2.90;90.40;;;;;;6215915;23;20150;-85
2021/03/19 04:08:38;;;;;;;19.60;17.50;;;3.40;90.30;;;;;;6216111;23;20376;-85
2021/03/19 04:11:09;;;;;;;20.58;17.00;;;3.10;90.00;;;;;;6186983;23;20423;-85
2021/03/19 04:13:35;;;;;;;21.17;18.83;;;3.10;89.10;;;;;;6213367;23;20132;-85
2021/03/19 04:16:01;;;;;;;25.52;17.33;;;3.00;89.60;;;;;;6213021;23;20139;-85
2021/03/19 04:18:27;;;;;;;23.50;19.00;;;4.20;90.90;;;;;;6212886;23;20166;-85
2021/03/19 04:20:56;;;;;;;21.58;17.63;;;3.00;89.60;;;;;;6185986;23;20379;-85
2021/03/19 04:23:23;;;;;;;22.13;18.35;;;3.00;89.00;;;;;;6185751;23;20211;-85
2021/03/19 04:25:50;;;;;;;23.50;18.85;;;3.00;89.70;;;;;;6212882;23;20155;-85
2021/03/19 04:28:20;;;;;;;21.05;18.15;;;3.00;89.60;;;;;;6186138;23;20587;-85
2021/03/19 04:30:47;;;;;;;26.63;20.00;;;2.90;90.10;;;;;;6212774;23;20214;-85
2021/03/19 04:33:19;;;;;;;26.05;17.02;;;2.70;90.30;;;;;;6212823;23;20481;-85
2021/03/19 04:36:04;;;;;;;26.30;17.40;;;2.60;90.00;;;;;;6211534;23;20457;-86
2021/03/19 04:38:30;;;;;;;26.73;19.13;;;2.70;87.30;;;;;;6214834;23;20140;-84
2021/03/19 04:40:56;;;;;;;22.27;18.97;;;2.50;85.40;;;;;;6215079;23;20140;-84
2021/03/19 04:43:21;;;;;;;25.73;18.73;;;2.50;81.20;;;;;;6215447;23;20171;-85
2021/03/19 04:45:47;;;;;;;28.20;19.37;;;2.50;81.70;;;;;;6215638;23;20147;-85
2021/03/19 04:48:13;;;;;;;25.47;19.50;;;2.10;81.00;;;;;;6215617;23;20151;-85
2021/03/19 04:50:39;;;;;;;28.90;18.80;;;2.50;81.40;;;;;;6189085;23;20151;-85
2021/03/19 04:53:04;;;;;;;28.23;20.17;;;2.50;81.10;;;;;;6188925;23;20375;-86
2021/03/19 04:55:31;;;;;;;25.57;19.60;;;3.10;81.90;;;;;;6216822;23;20151;-84
2021/03/19 04:57:56;;;;;;;25.90;19.42;;;2.40;80.20;;;;;;6214727;23;20247;-86
2021/03/19 05:00:22;;;;;;;23.70;18.30;;;2.20;80.30;;;;;;6215544;23;20171;-86
2021/03/19 05:02:50;;;;;;;25.48;18.45;;;2.50;79.90;;;;;;6215049;23;20175;-84
2021/03/19 05:05:29;;;;;;;28.70;18.35;;;1.80;78.70;;;;;;6188994;23;20143;-86
2021/03/19 05:07:56;;;;;;;23.55;19.17;;;2.10;80.00;;;;;;6216154;23;20572;-86
2021/03/19 05:10:25;;;;;;;27.17;18.95;;;2.30;81.10;;;;;;6215530;23;20582;-84
2021/03/19 05:12:51;;;;;;;23.20;18.88;;;2.30;79.60;;;;;;6215286;23;20433;-84
2021/03/19 05:15:17;;;;;;;22.00;17.60;;;2.10;79.30;;;;;;6214688;23;20194;-84
2021/03/19 05:17:43;;;;;;;23.38;17.33;;;2.80;80.70;;;;;;6188718;23;20241;-84
2021/03/19 05:20:11;;;;;;;25.83;17.63;;;1.80;79.20;;;;;;6188629;23;20179;-85
2021/03/19 05:22:38;;;;;;;23.65;18.50;;;2.20;79.10;;;;;;6188599;23;20906;-84
2021/03/19 05:25:06;;;;;;;26.13;18.13;;;2.00;79.40;;;;;;6215279;23;20193;-84
2021/03/19 05:27:32;;;;;;;26.48;18.20;;;2.20;78.60;;;;;;6215612;23;20150;-83
2021/03/19 05:29:58;;;;;;;21.33;16.87;;;1.90;79.20;;;;;;6217268;23;20144;-86
2021/03/19 05:32:25;;;;;;;25.73;17.80;;;2.30;79.50;;;;;;6214531;23;20143;-85
2021/03/19 05:34:50;;;;;;;20.92;16.40;;;2.20;78.40;;;;;;6215135;23;20526;-86
2021/03/19 05:37:16;;;;;;;20.90;17.20;;;1.90;78.60;;;;;;6215247;23;20205;-85
2021/03/19 05:39:42;;;;;;;23.65;17.95;;;2.00;78.90;;;;;;6215271;23;20585;-84
2021/03/19 05:42:29;;;;;;;21.03;18.90;;;1.80;78.10;;;;;;6214931;23;20168;-85
2021/03/19 05:45:09;;;;;;;22.52;17.38;;;1.80;79.10;;;;;;6189054;23;20560;-84
2021/03/19 05:47:36;;;;;;;21.77;17.58;;;1.80;79.10;;;;;;6216035;23;20564;-85
2021/03/19 05:50:02;;;;;;;24.65;17.00;;;1.70;78.90;;;;;;6215523;23;20592;-85
2021/03/19 05:52:34;;;;;;;20.60;17.33;;;1.80;79.10;;;;;;6189031;23;20147;-85
2021/03/19 05:55:13;;;;;;;22.73;17.45;;;1.90;79.30;;;;;;6188970;23;20234;-85
2021/03/19 05:57:39;;;;;;;20.42;15.98;;;1.70;78.10;;;;;;6215951;23;20132;-84
2021/03/19 06:00:14;;;;;;;23.73;16.83;;;1.70;78.90;;;;;;6216017;23;20205;-85
2021/03/19 06:02:40;;;;;;;18.55;16.63;;;1.80;77.90;;;;;;6215342;23;20186;-85
2021/03/19 06:05:09;;;;;;;19.60;15.80;;;1.70;79.70;;;;;;6215567;23;20215;-82
2021/03/19 06:07:44;;;;;;;21.05;15.00;;;2.50;81.20;;;;;;6214207;23;20580;-84
2021/03/19 06:10:30;;;;;;;17.25;14.48;;;1.80;79.00;;;;;;6215687;23;20145;-84
2021/03/19 06:13:25;;;;;;;15.38;13.75;;;1.70;78.80;;;;;;6215472;23;20143;-84
2021/03/19 06:15:53;;;;;;;16.63;14.88;;;1.90;74.40;;;;;;6188933;23;20174;-86
2021/03/19 06:18:34;;;;;;;16.25;13.82;;;3.00;79.20;;;;;;6217214;23;20151;-85
2021/03/19 06:21:11;;;;;;;15.13;13.63;;;1.90;73.50;;;;;;6189555;23;20272;-85
2021/03/19 06:23:39;;;;;;;15.98;12.60;;;1.90;77.20;;;;;;6217490;23;20147;-85
2021/03/19 06:26:15;;;;;;;14.90;13.55;;;1.40;76.00;;;;;;6216811;23;20148;-85
2021/03/19 06:28:41;;;;;;;15.63;13.10;;;1.90;76.00;;;;;;6218338;23;20162;-86
2021/03/19 06:31:17;;;;;;;14.10;12.67;;;1.90;76.60;;;;;;6217227;23;20575;-86
2021/03/19 06:33:42;;;;;;;11.68;10.45;;;2.00;75.80;;;;;;6216180;23;20145;-85
2021/03/19 06:36:18;;;;;;;11.50;10.53;;;2.40;75.20;;;;;;6190394;23;20234;-85
2021/03/19 06:38:49;;;;;;;11.73;10.60;;;2.90;72.40;;;;;;6216999;23;20158;-85
2021/03/19 06:41:23;;;;;;;12.05;11.00;;;3.30;66.50;;;;;;6217457;23;20190;-85
2021/03/19 06:43:50;;;;;;;10.82;9.98;;;3.80;64.30;;;;;;6216785;23;20142;-85
2021/03/19 06:46:40;;;;;;;10.77;9.90;;;4.00;64.80;;;;;;6215642;23;20170;-85
2021/03/19 06:49:07;;;;;;;12.02;10.02;;;4.60;60.70;;;;;;6219652;23;20179;-84
2021/03/19 06:51:42;;;;;;;13.02;12.02;;;4.70;61.70;;;;;;6216802;23;20187;-87
2021/03/19 06:54:13;;;;;;;11.32;10.25;;;4.80;59.50;;;;;;6217078;23;20135;-85
2021/03/19 06:56:59;;;;;;;8.93;8.23;;;5.50;57.20;;;;;;6215868;23;20416;-85
2021/03/19 06:59:27;;;;;;;8.77;7.80;;;5.50;57.40;;;;;;6183211;23;20154;-84
2021/03/19 07:01:53;;;;;;;9.18;8.30;;;6.00;57.10;;;;;;6212598;23;20206;-86
2021/03/19 07:04:40;;;;;;;10.67;8.70;;;5.60;56.90;;;;;;6213875;23;20572;-86
2021/03/19 07:07:18;;;;;;;9.50;8.80;;;6.30;55.20;;;;;;6213962;23;20389;-84
2021/03/19 07:10:00;;;;;;;10.40;9.50;;;6.40;56.00;;;;;;6214580;23;20167;-85
2021/03/19 07:12:34;;;;;;;8.32;7.82;;;6.80;56.00;;;;;;6213552;23;20194;-83
2021/03/19 07:15:12;;;;;;;9.18;8.48;;;9.30;59.10;;;;;;6214705;23;20150;-85
2021/03/19 07:18:03;;;;;;;7.93;7.35;;;7.40;59.90;;;;;;6187392;23;20946;-86
2021/03/19 07:20:59;;;;;;;8.30;7.70;;;7.90;63.60;;;;;;6213723;23;20622;-85
2021/03/19 07:23:30;;;;;;;8.63;8.02;;;8.60;62.90;;;;;;6213359;23;20314;-86
2021/03/19 07:26:26;;;;;;;9.57;8.35;;;9.90;60.70;;;;;;6185604;23;20150;-87
2021/03/19 07:29:30;;;;;;;10.07;8.02;;;9.00;56.80;;;;;;6213760;23;20457;-86
2021/03/19 07:32:19;;;;;;;8.25;7.63;;;9.20;56.60;;;;;;6214674;23;20135;-86
2021/03/19 07:35:00;;;;;;;8.13;7.53;;;9.20;57.40;;;;;;6217819;23;20151;-86
2021/03/19 07:37:41;;;;;;;8.40;7.80;;;8.30;55.90;;;;;;6214851;23;20177;-85
2021/03/19 07:40:41;;;;;;;8.48;7.88;;;8.50;55.90;;;;;;6186456;23;20583;-85
2021/03/19 07:43:21;;;;;;;9.68;8.88;;;8.70;55.80;;;;;;6217798;23;20186;-85
2021/03/19 07:46:09;;;;;;;8.73;7.30;;;8.70;55.60;;;;;;6189393;23;20259;-86
2021/03/19 07:48:55;;;;;;;7.75;7.15;;;9.20;55.30;;;;;;6217914;23;20218;-86
2021/03/19 07:51:39;;;;;;;8.25;7.65;;;9.50;48.90;;;;;;6218453;23;20146;-86
2021/03/19 07:54:31;;;;;;;7.93;7.13;;;9.60;47.00;;;;;;6224505;23;20143;-86
2021/03/19 07:57:07;;;;;;;10.97;7.80;;;10.40;46.10;;;;;;6225739;23;20161;-86
2021/03/19 07:59:48;;;;;;;7.30;6.70;;;10.80;44.00;;;;;;6224652;23;20706;-85
2021/03/19 08:02:25;;;;;;;7.53;6.90;;;10.40;44.80;;;;;;6187279;23;20449;-86
2021/03/19 08:05:02;;;;;;;7.27;6.67;;;10.60;45.50;;;;;;6187174;23;20390;-86
2021/03/19 08:07:48;;;;;;;9.10;8.40;;;10.40;43.50;;;;;;6214260;23;20377;-84
2021/03/19 08:10:45;;;;;;;8.03;7.33;;;10.60;42.80;;;;;;6186135;23;20760;-86
2021/03/19 08:13:48;;;;;;;7.57;6.80;;;10.60;41.80;;;;;;6185699;23;20387;-86
2021/03/19 08:16:48;;;;;;;8.00;7.47;;;10.40;42.70;;;;;;6213606;23;20381;-87
2021/03/19 08:19:41;;;;;;;7.17;6.47;;;10.50;42.70;;;;;;6189866;23;20378;-86
2021/03/19 08:22:27;;;;;;;24.53;12.00;;;11.10;42.20;;;;;;6187623;23;20437;-86
2021/03/19 08:25:06;;;;;;;7.50;7.00;;;10.90;41.10;;;;;;6216800;23;20362;-87
2021/03/19 08:28:03;;;;;;;6.77;6.37;;;10.50;43.00;;;;;;6215995;23;20175;-85
2021/03/19 08:30:58;;;;;;;8.43;7.57;;;11.20;41.60;;;;;;6216243;23;20385;-86
2021/03/19 08:33:31;;;;;;;8.30;7.60;;;11.40;41.70;;;;;;6214212;23;20371;-86
2021/03/19 08:36:15;;;;;;;10.57;7.93;;;11.00;40.20;;;;;;6190833;23;20386;-86
2021/03/19 08:38:52;;;;;;;8.37;7.77;;;12.90;41.30;;;;;;6217189;23;20395;-88
2021/03/19 08:41:21;;;;;;;8.23;7.43;;;;;;;;;;6189895;23;20382;-86
2021/03/19 08:43:50;;;;;;;8.20;7.00;;;12.70;52.20;;;;;;6189957;23;20493;-88
2021/03/19 08:46:21;;;;;;;7.20;6.70;;;13.00;39.40;;;;;;6214572;23;20682;-87
2021/03/19 08:48:57;;;;;;;7.73;7.13;;;13.40;34.70;;;;;;6214820;23;20378;-87
2021/03/19 08:51:30;;;;;;;9.27;7.70;;;14.00;33.30;;;;;;6188529;23;20383;-88
2021/03/19 08:54:31;;;;;;;;;;;;;;;;;;;;;
2021/03/19 08:57:19;;;;;;;6.37;5.97;;;14.00;31.90;;;;;;6212286;23;20449;-87
2021/03/19 08:59:50;;;;;;;6.97;6.50;;;13.80;31.90;;;;;;6203799;23;20466;-88
2021/03/19 09:02:24;;;;;;;6.53;6.23;;;12.20;31.00;;;;;;6218902;23;20952;-89
2021/03/19 09:04:50;;;;;;;9.30;5.20;;;12.30;32.60;;;;;;6193809;23;20432;-86
2021/03/19 09:07:39;;;;;;;4.43;4.27;;;12.80;33.50;;;;;;6193365;23;20410;-87
2021/03/19 09:10:16;;;;;;;5.27;4.77;;;13.00;32.20;;;;;;6219447;23;20363;-88
2021/03/19 09:12:56;;;;;;;4.33;4.23;;;12.90;31.80;;;;;;6217223;23;20371;-86
2021/03/19 09:15:23;;;;;;;5.27;4.50;;;;;;;;;;6190825;23;20390;-86
2021/03/19 09:18:36;;;;;;;4.00;3.70;;;11.30;37.10;;;;;;6217474;23;20401;-88
2021/03/19 09:21:32;;;;;;;5.70;5.30;;;12.00;34.30;;;;;;6209921;23;20422;-87
2021/03/19 09:24:01;;;;;;;4.47;4.20;;;11.90;35.00;;;;;;6219975;23;20441;-86
2021/03/19 09:27:13;;;;;;;7.20;4.03;;;12.40;37.40;;;;;;6193855;23;20374;-87
2021/03/19 09:29:40;;;;;;;4.37;4.17;;;12.10;38.40;;;;;;6179670;23;20737;-88
2021/03/19 09:32:43;;;;;;;4.70;4.40;;;10.80;38.30;;;;;;6220070;23;20371;-85
2021/03/19 09:35:31;;;;;;;4.90;4.50;;;12.30;34.70;;;;;;6193828;23;20774;-85
2021/03/19 09:37:57;;;;;;;6.43;4.43;;;12.90;45.00;;;;;;6205429;23;20489;-88
2021/03/19 09:40:38;;;;;;;4.10;3.80;;;14.60;43.00;;;;;;6220381;23;20490;-87
2021/03/19 09:43:08;;;;;;;3.43;3.23;;;13.30;49.80;;;;;;6221977;23;20177;-87
2021/03/19 09:45:38;;;;;;;4.20;3.90;;;13.50;46.20;;;;;;6221987;23;20351;-88
2021/03/19 09:48:15;;;;;;;4.23;3.83;;;13.20;46.60;;;;;;6194291;23;20779;-88
2021/03/19 09:50:54;;;;;;;4.10;3.90;;;14.00;43.50;;;;;;6222328;23;20413;-86
2021/03/19 09:53:20;;;;;;;4.00;3.80;;;13.10;41.80;;;;;;6197587;23;20397;-86
2021/03/19 09:55:49;;;;;;;4.10;3.80;;;12.40;43.20;;;;;;6221685;23;20374;-87
2021/03/19 09:58:46;;;;;;;4.10;3.90;;;11.40;37.80;;;;;;6220787;23;20154;-87
2021/03/19 10:01:26;;;;;;;3.47;3.37;;;12.60;40.20;;;;;;6217625;23;20422;-86
2021/03/19 10:03:54;;;;;;;3.10;3.00;;;;;;;;;;6192757;23;20398;-86
2021/03/19 10:06:31;;;;;;;3.25;3.15;;;;;;;;;;6193409;23;20159;-86
2021/03/19 10:09:13;;;;;;;4.00;3.80;;;9.10;58.60;;;;;;6193282;23;20218;-88
2021/03/19 10:12:00;;;;;;;3.08;2.88;;;8.60;56.50;;;;;;6194100;23;20156;-87
2021/03/19 10:14:32;;;;;;;3.60;3.40;;;9.30;55.20;;;;;;6218050;23;20709;-91
2021/03/19 10:17:27;;;;;;;3.00;2.90;;;9.90;53.00;;;;;;6221305;23;20779;-87
2021/03/19 10:20:11;;;;;;;3.33;3.05;;;9.90;52.60;;;;;;6220394;23;20143;-86
2021/03/19 10:22:45;;;;;;;4.53;4.15;;;10.50;52.60;;;;;;6193093;23;20196;-88
2021/03/19 10:25:32;;;;;;;3.65;3.45;;;10.20;51.50;;;;;;6193276;23;20147;-85
2021/03/19 10:28:00;;;;;;;3.17;3.08;;;9.40;53.30;;;;;;6217119;23;20523;-86
2021/03/19 10:30:48;;;;;;;3.17;3.08;;;9.00;53.40;;;;;;6189179;23;20182;-88
2021/03/19 10:33:23;;;;;;;2.50;2.40;;;9.60;51.70;;;;;;6186552;23;20221;-88
2021/03/19 10:36:00;;;;;;;2.72;2.72;;;9.80;51.40;;;;;;6214630;23;20146;-85
2021/03/19 10:38:38;;;;;;;4.78;3.00;;;10.10;50.30;;;;;;6188447;23;20174;-87
2021/03/19 10:41:27;;;;;;;4.80;2.40;;;10.30;49.20;;;;;;6188767;23;20186;-87
2021/03/19 10:44:03;;;;;;;1.90;1.90;;;10.90;47.80;;;;;;6213449;23;20891;-86
2021/03/19 10:46:40;;;;;;;3.23;3.13;;;12.50;46.90;;;;;;6213295;23;20386;-87
2021/03/19 10:49:19;;;;;;;3.13;2.90;;;16.00;43.40;;;;;;6216626;23;20461;-87
2021/03/19 10:52:08;;;;;;;2.70;2.40;;;14.00;40.40;;;;;;6219764;23;20354;-86
2021/03/19 10:54:39;;;;;;;3.63;3.33;;;14.50;38.40;;;;;;6219414;23;20363;-87
2021/03/19 10:57:37;;;;;;;3.53;3.30;;;14.50;39.30;;;;;;6218079;23;20359;-88
2021/03/19 11:00:30;;;;;;;2.57;2.57;;;14.40;38.80;;;;;;6191165;23;20466;-87
2021/03/19 11:02:58;;;;;;;2.87;2.70;;;14.80;39.60;;;;;;6214816;23;20422;-86
2021/03/19 11:05:24;;;;;;;2.70;2.60;;;14.10;38.90;;;;;;6217438;23;20359;-83
2021/03/19 11:07:50;;;;;;;4.87;4.60;;;14.80;39.10;;;;;;6190294;23;20390;-87
2021/03/19 11:10:26;;;;;;;2.80;2.60;;;14.90;38.20;;;;;;6216565;23;20375;-87
2021/03/19 11:13:17;;;;;;;5.07;4.67;;;15.70;32.50;;;;;;6215105;23;20151;-89
2021/03/19 11:15:46;;;;;;;3.00;2.90;;;17.40;28.90;;;;;;6214579;23;20734;-86
2021/03/19 11:18:14;;;;;;;2.33;2.20;;;18.80;28.00;;;;;;6216511;23;20736;-87
2021/03/19 11:20:45;;;;;;;1.67;1.67;;;16.30;26.00;;;;;;6216024;23;20386;-87
2021/03/19 11:23:42;;;;;;;3.97;2.20;;;16.60;27.00;;;;;;6213375;23;20449;-86
2021/03/19 11:26:20;;;;;;;2.63;2.00;;;15.70;26.40;;;;;;6213351;23;20735;-85
2021/03/19 11:28:47;;;;;;;2.10;1.90;;;17.20;27.40;;;;;;6186632;23;20517;-86
2021/03/19 11:31:18;;;;;;;2.97;2.77;;;17.00;27.80;;;;;;6213278;23;20397;-89
2021/03/19 11:33:53;;;;;;;1.67;1.67;;;19.00;26.20;;;;;;6215769;23;20453;-88
2021/03/19 11:36:19;;;;;;;3.03;2.77;;;18.10;24.90;;;;;;6213982;23;20516;-87
2021/03/19 11:38:45;;;;;;;2.53;2.33;;;19.00;26.70;;;;;;6217426;23;20934;-86
2021/03/19 11:41:34;;;;;;;4.63;2.53;;;19.80;27.20;;;;;;6217497;23;20855;-86
2021/03/19 11:44:02;;;;;;;2.40;2.40;;;19.10;28.20;;;;;;6218876;23;20371;-87
2021/03/19 11:46:29;;;;;;;2.07;2.07;;;15.80;36.30;;;;;;6195509;23;20378;-87
2021/03/19 11:48:56;;;;;;;4.37;2.40;;;16.00;36.80;;;;;;6196935;23;20371;-87
2021/03/19 11:51:31;;;;;;;2.50;2.43;;;15.80;33.90;;;;;;6221958;23;20390;-86
2021/03/19 11:54:05;;;;;;;2.57;1.80;;;15.20;33.50;;;;;;6217883;23;20373;-87
2021/03/19 11:56:32;;;;;;;3.60;2.37;;;15.10;30.50;;;;;;6216265;23;20465;-86
2021/03/19 11:58:58;;;;;;;5.93;5.37;;;15.70;30.10;;;;;;6217734;23;20425;-89
2021/03/19 12:01:24;;;;;;;1.63;1.53;;;16.30;29.90;;;;;;6165637;23;20447;-86
2021/03/19 12:03:52;;;;;;;2.63;2.43;;;18.00;32.40;;;;;;6166610;23;20395;-87
2021/03/19 12:06:24;;;;;;;1.87;1.87;;;17.50;27.30;;;;;;6166629;23;20445;-87
2021/03/19 12:08:50;;;;;;;3.80;3.60;;;19.10;27.50;;;;;;6067646;23;20375;-87
2021/03/19 12:11:37;;;;;;;1.93;1.83;;;15.50;25.50;;;;;;6165337;23;20702;-86
2021/03/19 12:14:05;;;;;;;1.83;1.73;;;17.60;25.60;;;;;;6064829;23;20436;-86
2021/03/19 12:16:31;;;;;;;1.77;1.67;;;16.90;25.80;;;;;;6165782;23;20383;-86
2021/03/19 12:18:57;;;;;;;1.47;1.40;;;19.10;26.60;;;;;;6065881;23;20712;-86
2021/03/19 12:21:23;;;;;;;1.10;1.10;;;15.70;25.20;;;;;;6191288;23;20398;-88
2021/03/19 12:23:49;;;;;;;6.00;1.57;;;16.20;32.40;;;;;;6065259;23;20756;-87
2021/03/19 12:26:15;;;;;;;2.13;2.00;;;18.20;32.60;;;;;;6064644;23;20737;-88
2021/03/19 12:28:40;;;;;;;1.70;1.70;;;17.80;30.00;;;;;;6066121;23;20434;-88
2021/03/19 12:31:07;;;;;;;1.43;1.43;;;;;;;;;;6065418;23;20249;-87
2021/03/19 12:33:36;;;;;;;4.60;4.00;;;15.30;25.40;;;;;;6164843;23;20190;-88
2021/03/19 12:36:04;;;;;;;17.10;15.40;;;16.80;32.90;;;;;;6165244;23;20798;-87
2021/03/19 12:38:30;;;;;;;3.23;3.03;;;16.80;25.90;;;;;;6164865;23;20434;-85
2021/03/19 12:40:59;;;;;;;3.43;3.33;;;17.20;25.30;;;;;;6065643;23;20417;-86
2021/03/19 12:43:26;;;;;;;1.50;1.50;;;16.20;37.60;;;;;;6165270;23;20212;-87
2021/03/19 12:45:53;;;;;;;2.07;1.97;;;;;;;;;;6065391;23;20474;-85
2021/03/19 12:48:19;;;;;;;1.80;1.70;;;14.40;28.90;;;;;;6066010;23;20372;-86
2021/03/19 12:50:44;;;;;;;1.50;1.50;;;14.80;29.70;;;;;;6064667;23;20434;-87
2021/03/19 12:53:16;;;;;;;1.70;1.67;;;15.90;30.30;;;;;;6190520;23;20447;-88
2021/03/19 12:55:42;;;;;;;1.00;1.00;;;17.70;34.00;;;;;;6065579;23;20139;-87
2021/03/19 12:58:08;;;;;;;2.13;2.03;;;18.10;36.50;;;;;;6189727;23;20396;-86
2021/03/19 13:00:36;;;;;;;4.47;2.73;;;13.60;29.90;;;;;;6164459;23;20423;-87
2021/03/19 13:03:02;;;;;;;1.47;1.47;;;14.30;28.90;;;;;;6164167;23;20164;-85
2021/03/19 13:05:30;;;;;;;11.30;7.60;;;12.90;27.80;;;;;;6065362;23;20367;-87
2021/03/19 13:07:56;;;;;;;2.23;2.13;;;15.40;29.40;;;;;;6065701;23;20375;-87
2021/03/19 13:10:24;;;;;;;2.50;2.27;;;12.80;27.70;;;;;;6063165;23;21288;-86
2021/03/19 13:12:52;;;;;;;1.53;1.53;;;12.50;29.50;;;;;;6061849;23;20434;-86
2021/03/19 13:15:21;;;;;;;1.33;1.33;;;13.80;26.40;;;;;;6062851;23;20368;-87
2021/03/19 13:17:47;;;;;;;4.37;1.60;;;;;;;;;;6063544;23;20401;-85
2021/03/19 13:20:14;;;;;;;2.90;1.40;;;;;;;;;;6163368;23;20375;-87
2021/03/19 13:22:43;;;;;;;2.07;1.53;;;17.00;27.30;;;;;;6162263;23;20411;-86